Terminal Aerodrome Forecast
Issued by NWS

Home | Current Version | Previous Version | Graphics & Text | Print | Product List | Glossary On
Versions: 1 2 3 4 5 6 7 8 9 10 11 12 13 14 15 16
000
FTUS43 KIWX 042323
TAFSBN
TAF
KSBN 042323Z 0500/0524 35015G25KT 5SM -RA BR OVC012
      TEMPO 0500/0504 2SM -RA OVC008
     FM050800 36014KT 5SM BR BKN012
     FM051300 36014KT P6SM SCT015
     FM051800 36014KT P6SM SCT035=

USA.gov is the U.S. government's official web portal to all federal, state and local government web resources and services.